Time;durP1;ratioP1;P1;durP2;ratioP2;P2;SDS_P1;SDS_P2;PMS_P1;PMS_P2;Temp;Humidity;BMP_temperature;BMP_pressure;BME280_temperature;BME280_humidity;BME280_pressure;Samples;Min_cycle;Max_cycle;Signal;HPM_P1;HPM_P2
2023/06/16 00:01:57;;;;;;;5.45;3.67;;;;;;;;;;5050798;28;20062;-68
2023/06/16 00:04:43;;;;;;;6.78;4.43;;;;;;;;;;5044702;28;20387;-66
2023/06/16 00:07:33;;;;;;;5.75;3.70;;;;;;;;;;5045029;28;20653;-69
2023/06/16 00:10:18;;;;;;;7.22;3.75;;;;;;;;;;5045642;28;20027;-71
2023/06/16 00:13:03;;;;;;;6.13;3.83;;;;;;;;;;5053607;28;20417;-71
2023/06/16 00:15:48;;;;;;;5.85;3.78;;;;;;;;;;5047495;28;20032;-72
2023/06/16 00:18:35;;;;;;;5.53;3.70;;;;;;;;;;5035787;28;20040;-72
2023/06/16 00:21:25;;;;;;;6.93;3.70;;;;;;;;;;5038440;28;20047;-70
2023/06/16 00:24:10;;;;;;;6.60;4.10;;;;;;;;;;5042908;28;20032;-70
2023/06/16 00:26:55;;;;;;;6.15;3.38;;;;;;;;;;5050308;28;20116;-68
2023/06/16 00:29:41;;;;;;;5.88;3.65;;;;;;;;;;5044324;28;20054;-61
2023/06/16 00:32:26;;;;;;;6.18;3.38;;;;;;;;;;5047130;28;20040;-61
2023/06/16 00:35:11;;;;;;;9.10;3.67;;;;;;;;;;5048957;28;20025;-61
2023/06/16 00:37:56;;;;;;;6.22;3.65;;;;;;;;;;5049305;28;20181;-62
2023/06/16 00:40:41;;;;;;;5.00;3.08;;;;;;;;;;5046874;28;20028;-64
2023/06/16 00:43:27;;;;;;;5.63;3.22;;;;;;;;;;5050095;28;20438;-62
2023/06/16 00:46:26;;;;;;;4.80;3.22;;;;;;;;;;5052813;28;20044;-71
2023/06/16 00:49:11;;;;;;;6.25;3.53;;;;;;;;;;5051945;28;20107;-63
2023/06/16 00:51:56;;;;;;;8.10;3.83;;;;;;;;;;5046889;28;20069;-63
2023/06/16 00:54:42;;;;;;;5.60;3.80;;;;;;;;;;5046588;28;20032;-61
2023/06/16 00:57:28;;;;;;;10.63;4.40;;;;;;;;;;5048912;28;20047;-63
2023/06/16 01:00:13;;;;;;;5.85;3.70;;;;;;;;;;5048908;28;20240;-64
2023/06/16 01:03:02;;;;;;;6.35;3.78;;;;;;;;;;5054607;28;20020;-63
2023/06/16 01:05:47;;;;;;;4.87;3.53;;;;;;;;;;5053816;28;20043;-63
2023/06/16 01:08:44;;;;;;;6.70;3.70;;;;;;;;;;5054072;28;20317;-63
2023/06/16 01:11:37;;;;;;;5.80;4.07;;;;;;;;;;5053216;28;20032;-63
2023/06/16 01:14:38;;;;;;;7.18;3.67;;;;;;;;;;5050885;28;20784;-61
2023/06/16 01:17:23;;;;;;;9.10;4.00;;;;;;;;;;5057633;28;20135;-65
2023/06/16 01:20:09;;;;;;;4.97;3.53;;;;;;;;;;5044279;28;20037;-62
2023/06/16 01:22:54;;;;;;;5.28;3.47;;;;;;;;;;5053298;28;20032;-64
2023/06/16 01:25:42;;;;;;;7.03;4.25;;;;;;;;;;5050910;28;20098;-62
2023/06/16 01:28:30;;;;;;;8.32;4.07;;;;;;;;;;5054044;28;20044;-62
2023/06/16 01:31:16;;;;;;;5.00;3.33;;;;;;;;;;5047659;28;20560;-64
2023/06/16 01:34:02;;;;;;;8.98;4.45;;;;;;;;;;5052195;28;20120;-62
2023/06/16 01:36:48;;;;;;;5.57;3.28;;;;;;;;;;5049805;28;20043;-63
2023/06/16 01:39:33;;;;;;;7.35;4.07;;;;;;;;;;5051900;28;20033;-63
2023/06/16 01:42:18;;;;;;;8.00;3.25;;;;;;;;;;5054856;28;20040;-69
2023/06/16 01:45:04;;;;;;;6.65;3.42;;;;;;;;;;5049942;28;20078;-68
2023/06/16 01:47:50;;;;;;;5.60;4.05;;;;;;;;;;5053802;28;20108;-69
2023/06/16 01:50:35;;;;;;;6.38;3.72;;;;;;;;;;5054130;28;20055;-69
2023/06/16 01:53:20;;;;;;;6.72;3.53;;;;;;;;;;5053781;28;20028;-68
2023/06/16 01:56:06;;;;;;;5.25;3.92;;;;;;;;;;5049394;28;20435;-69
2023/06/16 01:58:51;;;;;;;6.07;3.83;;;;;;;;;;5045288;28;20033;-65
2023/06/16 02:01:39;;;;;;;6.40;3.85;;;;;;;;;;5052901;28;20036;-65
2023/06/16 02:04:27;;;;;;;4.45;3.20;;;;;;;;;;5048432;28;20491;-65
2023/06/16 02:07:14;;;;;;;5.25;3.05;;;;;;;;;;5050640;28;20043;-68
2023/06/16 02:10:00;;;;;;;8.65;3.95;;;;;;;;;;5051183;28;20085;-69
2023/06/16 02:12:45;;;;;;;6.15;3.70;;;;;;;;;;5051109;28;20391;-65
2023/06/16 02:15:32;;;;;;;5.15;3.38;;;;;;;;;;5051588;28;20087;-67
2023/06/16 02:18:24;;;;;;;5.30;3.58;;;;;;;;;;5049140;28;20384;-70
2023/06/16 02:21:09;;;;;;;9.52;3.58;;;;;;;;;;5051571;28;20055;-70
2023/06/16 02:23:54;;;;;;;5.50;3.17;;;;;;;;;;5029923;28;20127;-70
2023/06/16 02:26:39;;;;;;;5.65;3.38;;;;;;;;;;5051786;28;20773;-70
2023/06/16 02:29:25;;;;;;;6.18;4.38;;;;;;;;;;5052619;28;20114;-71
2023/06/16 02:32:10;;;;;;;7.28;4.00;;;;;;;;;;5050312;28;20024;-69
2023/06/16 02:34:56;;;;;;;7.88;4.05;;;;;;;;;;5032576;28;20020;-62
2023/06/16 02:37:41;;;;;;;5.28;3.90;;;;;;;;;;5048463;28;20751;-69
2023/06/16 02:40:26;;;;;;;10.02;4.20;;;;;;;;;;5051875;28;20111;-70
2023/06/16 02:43:12;;;;;;;7.50;3.83;;;;;;;;;;5050253;28;20043;-73
2023/06/16 02:45:57;;;;;;;6.45;4.03;;;;;;;;;;5047042;28;21877;-72
2023/06/16 02:48:42;;;;;;;7.95;4.47;;;;;;;;;;5052429;28;20033;-71
2023/06/16 02:51:28;;;;;;;6.38;4.15;;;;;;;;;;5050994;28;20047;-71
2023/06/16 02:54:13;;;;;;;7.28;4.13;;;;;;;;;;5048119;28;20180;-66
2023/06/16 02:56:58;;;;;;;8.70;4.05;;;;;;;;;;5050421;28;20451;-71
2023/06/16 02:59:43;;;;;;;6.50;3.63;;;;;;;;;;5049542;28;20694;-70
2023/06/16 03:02:28;;;;;;;5.97;4.25;;;;;;;;;;5049975;28;20472;-71
2023/06/16 03:05:17;;;;;;;6.22;3.55;;;;;;;;;;5041907;28;20042;-70
2023/06/16 03:08:03;;;;;;;5.60;3.33;;;;;;;;;;5050667;28;20058;-69
2023/06/16 03:10:48;;;;;;;5.95;3.95;;;;;;;;;;5048166;28;20036;-71
2023/06/16 03:13:33;;;;;;;6.10;4.00;;;;;;;;;;5051312;28;20059;-64
2023/06/16 03:16:21;;;;;;;6.90;3.78;;;;;;;;;;5046836;28;20041;-65
2023/06/16 03:19:06;;;;;;;6.90;4.00;;;;;;;;;;5051933;28;20029;-67
2023/06/16 03:21:51;;;;;;;8.80;3.80;;;;;;;;;;5049765;28;20548;-64
2023/06/16 03:24:37;;;;;;;5.25;3.50;;;;;;;;;;5046006;28;20505;-67
2023/06/16 03:27:22;;;;;;;7.53;3.60;;;;;;;;;;5047822;28;20502;-63
2023/06/16 03:30:08;;;;;;;7.57;4.10;;;;;;;;;;5050168;28;20063;-65
2023/06/16 03:32:54;;;;;;;5.70;3.60;;;;;;;;;;5049870;28;20141;-68
2023/06/16 03:35:39;;;;;;;9.30;3.85;;;;;;;;;;5044340;28;20040;-67
2023/06/16 03:38:25;;;;;;;4.75;3.17;;;;;;;;;;5049320;28;20021;-64
2023/06/16 03:41:10;;;;;;;7.07;3.92;;;;;;;;;;5050016;28;20068;-68
2023/06/16 03:43:55;;;;;;;5.32;3.20;;;;;;;;;;5048571;28;20186;-66
2023/06/16 03:46:40;;;;;;;6.57;3.65;;;;;;;;;;5050658;28;20093;-69
2023/06/16 03:49:26;;;;;;;9.15;3.92;;;;;;;;;;5047916;28;20078;-64
2023/06/16 03:52:11;;;;;;;8.20;3.70;;;;;;;;;;5055435;28;20047;-63
2023/06/16 03:54:57;;;;;;;6.95;3.92;;;;;;;;;;5046127;28;20059;-62
2023/06/16 03:57:42;;;;;;;6.05;3.88;;;;;;;;;;5049665;28;20039;-64
2023/06/16 04:00:27;;;;;;;7.68;3.63;;;;;;;;;;5046275;28;20024;-67
2023/06/16 04:03:15;;;;;;;6.80;3.60;;;;;;;;;;5050153;28;20123;-67
2023/06/16 04:06:00;;;;;;;6.18;3.97;;;;;;;;;;5047638;28;20045;-63
2023/06/16 04:08:46;;;;;;;5.88;3.80;;;;;;;;;;5046202;28;20579;-72
2023/06/16 04:11:33;;;;;;;6.22;3.70;;;;;;;;;;5051240;28;20067;-62
2023/06/16 04:14:18;;;;;;;6.75;4.20;;;;;;;;;;5057503;28;20433;-63
2023/06/16 04:17:03;;;;;;;6.35;4.20;;;;;;;;;;5047217;28;20027;-62
2023/06/16 04:19:48;;;;;;;5.25;4.03;;;;;;;;;;5044839;28;20024;-63
2023/06/16 04:22:34;;;;;;;7.78;4.47;;;;;;;;;;5048617;28;20494;-65
2023/06/16 04:25:21;;;;;;;6.68;3.72;;;;;;;;;;5050000;28;20036;-64
2023/06/16 04:28:12;;;;;;;5.93;3.80;;;;;;;;;;5049739;28;20036;-62
2023/06/16 04:30:58;;;;;;;5.45;3.72;;;;;;;;;;5050259;28;20391;-63
2023/06/16 04:33:43;;;;;;;5.65;3.63;;;;;;;;;;5048599;28;20037;-62
2023/06/16 04:36:29;;;;;;;6.13;4.22;;;;;;;;;;5047000;28;20036;-62
2023/06/16 04:39:14;;;;;;;8.05;4.32;;;;;;;;;;5045019;28;20056;-62
2023/06/16 04:42:02;;;;;;;7.57;3.95;;;;;;;;;;5047326;28;20072;-62
2023/06/16 04:44:47;;;;;;;9.70;4.13;;;;;;;;;;5047877;28;20466;-67
2023/06/16 04:47:35;;;;;;;7.25;4.20;;;;;;;;;;5047560;28;20372;-63
2023/06/16 04:50:20;;;;;;;10.15;4.00;;;;;;;;;;5046971;28;20465;-64
2023/06/16 04:53:06;;;;;;;8.05;4.47;;;;;;;;;;5044324;28;20037;-63
2023/06/16 04:55:51;;;;;;;9.13;4.10;;;;;;;;;;5046742;28;20127;-64
2023/06/16 04:58:36;;;;;;;5.63;3.83;;;;;;;;;;5041447;28;20475;-61
2023/06/16 05:01:26;;;;;;;7.63;4.22;;;;;;;;;;5037154;28;20033;-62
2023/06/16 05:04:11;;;;;;;9.63;3.90;;;;;;;;;;5049380;28;20036;-66
2023/06/16 05:06:56;;;;;;;5.88;3.58;;;;;;;;;;5040024;28;20041;-72
2023/06/16 05:09:42;;;;;;;7.13;3.80;;;;;;;;;;5047208;28;20044;-73
2023/06/16 05:12:27;;;;;;;6.05;3.42;;;;;;;;;;5045189;28;20058;-72
2023/06/16 05:15:13;;;;;;;8.52;4.25;;;;;;;;;;5052368;28;20163;-72
2023/06/16 05:17:58;;;;;;;8.20;4.28;;;;;;;;;;5040963;28;20017;-74
2023/06/16 05:20:43;;;;;;;8.60;4.45;;;;;;;;;;5045104;28;20032;-65
2023/06/16 05:23:28;;;;;;;7.07;4.10;;;;;;;;;;5047672;28;20021;-62
2023/06/16 05:26:14;;;;;;;5.68;3.70;;;;;;;;;;5043235;28;20451;-63
2023/06/16 05:28:59;;;;;;;5.35;3.08;;;;;;;;;;5049730;28;20062;-63
2023/06/16 05:31:44;;;;;;;7.75;3.70;;;;;;;;;;5042620;28;20523;-62
2023/06/16 05:34:29;;;;;;;6.53;3.92;;;;;;;;;;5041484;28;20037;-61
2023/06/16 05:37:15;;;;;;;6.70;4.00;;;;;;;;;;5046622;28;20105;-61
2023/06/16 05:40:00;;;;;;;6.88;3.90;;;;;;;;;;5039558;28;20032;-66
2023/06/16 05:42:45;;;;;;;6.63;4.03;;;;;;;;;;5042307;28;20542;-63
2023/06/16 05:45:31;;;;;;;7.90;3.78;;;;;;;;;;5043047;28;20124;-66
2023/06/16 05:48:16;;;;;;;9.40;4.22;;;;;;;;;;5055827;28;20024;-64
2023/06/16 05:51:02;;;;;;;7.75;4.10;;;;;;;;;;5049656;28;20116;-64
2023/06/16 05:53:48;;;;;;;6.03;3.40;;;;;;;;;;5052578;28;20036;-62
2023/06/16 05:56:33;;;;;;;7.80;3.33;;;;;;;;;;5053360;28;20487;-66
2023/06/16 05:59:18;;;;;;;7.15;3.20;;;;;;;;;;5058017;28;20063;-63
2023/06/16 06:02:03;;;;;;;9.82;3.80;;;;;;;;;;5055722;28;20459;-65
2023/06/16 06:04:49;;;;;;;6.68;3.83;;;;;;;;;;5055071;28;20345;-66
2023/06/16 06:07:34;;;;;;;5.85;3.72;;;;;;;;;;5044101;28;20048;-67
2023/06/16 06:10:19;;;;;;;7.18;3.70;;;;;;;;;;5048676;28;20038;-67
2023/06/16 06:13:05;;;;;;;6.82;3.70;;;;;;;;;;5045083;28;20090;-67
2023/06/16 06:15:50;;;;;;;8.23;3.72;;;;;;;;;;5050441;28;20041;-65
2023/06/16 06:18:35;;;;;;;8.25;3.92;;;;;;;;;;5045914;28;20021;-60
2023/06/16 06:21:20;;;;;;;8.02;4.03;;;;;;;;;;5050450;28;20041;-62
2023/06/16 06:24:06;;;;;;;10.30;3.83;;;;;;;;;;5047774;28;20527;-64
2023/06/16 06:26:52;;;;;;;6.80;3.90;;;;;;;;;;5051019;28;20118;-64
2023/06/16 06:29:37;;;;;;;8.05;4.18;;;;;;;;;;5053883;28;20024;-63
2023/06/16 06:32:22;;;;;;;8.15;3.72;;;;;;;;;;5049582;28;20043;-64
2023/06/16 06:35:07;;;;;;;6.60;3.47;;;;;;;;;;5054931;28;20052;-66
2023/06/16 06:37:53;;;;;;;7.10;3.65;;;;;;;;;;5051850;28;20031;-78
2023/06/16 06:40:38;;;;;;;5.07;3.50;;;;;;;;;;5054375;28;20216;-73
2023/06/16 06:43:25;;;;;;;6.50;3.40;;;;;;;;;;5049426;28;20102;-73
2023/06/16 06:46:10;;;;;;;5.07;3.60;;;;;;;;;;5049448;28;20085;-75
2023/06/16 06:48:57;;;;;;;9.68;3.85;;;;;;;;;;5046834;28;20028;-74
2023/06/16 06:51:42;;;;;;;8.48;4.15;;;;;;;;;;5032545;28;20039;-73
2023/06/16 06:54:27;;;;;;;4.82;3.17;;;;;;;;;;5044298;28;20032;-70
2023/06/16 06:57:12;;;;;;;5.55;3.20;;;;;;;;;;5048049;28;20032;-72
2023/06/16 06:59:58;;;;;;;6.38;3.80;;;;;;;;;;5046286;28;20035;-70
2023/06/16 07:02:43;;;;;;;8.35;3.60;;;;;;;;;;5051327;28;20040;-70
2023/06/16 07:05:28;;;;;;;5.72;3.95;;;;;;;;;;5051584;28;20037;-72
2023/06/16 07:08:13;;;;;;;6.05;4.05;;;;;;;;;;5050561;28;20031;-72
2023/06/16 07:10:59;;;;;;;7.13;3.55;;;;;;;;;;5050751;28;20146;-63
2023/06/16 07:13:44;;;;;;;7.00;3.95;;;;;;;;;;5050462;28;20151;-66
2023/06/16 07:16:29;;;;;;;4.78;3.75;;;;;;;;;;5053105;28;20535;-68
2023/06/16 07:19:15;;;;;;;8.02;4.53;;;;;;;;;;5054894;28;20081;-69
2023/06/16 07:22:00;;;;;;;6.63;3.88;;;;;;;;;;5057074;28;20037;-68
2023/06/16 07:24:46;;;;;;;8.57;3.80;;;;;;;;;;5046524;28;20028;-68
2023/06/16 07:27:31;;;;;;;4.88;3.38;;;;;;;;;;5046779;28;20093;-69
2023/06/16 07:30:16;;;;;;;8.55;4.18;;;;;;;;;;5050636;28;20063;-69
2023/06/16 07:33:01;;;;;;;8.88;4.13;;;;;;;;;;5049360;28;20040;-72
2023/06/16 07:35:47;;;;;;;9.13;4.63;;;;;;;;;;5051643;28;20411;-69
2023/06/16 07:38:32;;;;;;;7.35;3.60;;;;;;;;;;5045471;28;20048;-70
2023/06/16 07:41:19;;;;;;;7.50;3.95;;;;;;;;;;5050900;28;20024;-73
2023/06/16 07:44:04;;;;;;;4.78;3.20;;;;;;;;;;5048237;28;20036;-68
2023/06/16 07:46:50;;;;;;;7.80;4.63;;;;;;;;;;5047815;28;20033;-73
2023/06/16 07:49:35;;;;;;;3.92;2.90;;;;;;;;;;5054681;28;20032;-72
2023/06/16 07:52:20;;;;;;;8.45;4.07;;;;;;;;;;5049264;28;20081;-64
2023/06/16 07:55:06;;;;;;;8.05;4.13;;;;;;;;;;5039275;28;20050;-65
2023/06/16 07:57:51;;;;;;;8.48;3.72;;;;;;;;;;5051679;28;20108;-67
2023/06/16 08:00:36;;;;;;;7.00;3.72;;;;;;;;;;5046426;28;20071;-64
2023/06/16 08:03:22;;;;;;;5.97;3.60;;;;;;;;;;5050188;28;20502;-64
2023/06/16 08:06:07;;;;;;;7.45;3.55;;;;;;;;;;5056295;28;20043;-70
2023/06/16 08:08:53;;;;;;;5.57;2.65;;;;;;;;;;5046761;28;20036;-67
2023/06/16 08:11:38;;;;;;;6.03;3.22;;;;;;;;;;5052218;28;20119;-68
2023/06/16 08:14:23;;;;;;;5.93;3.28;;;;;;;;;;5046553;28;20609;-65
2023/06/16 08:17:09;;;;;;;5.88;3.22;;;;;;;;;;5048221;28;20036;-66
2023/06/16 08:19:54;;;;;;;5.30;2.60;;;;;;;;;;5047954;28;20123;-65
2023/06/16 08:22:39;;;;;;;9.13;3.53;;;;;;;;;;5047334;28;20051;-68
2023/06/16 08:25:24;;;;;;;5.20;3.65;;;;;;;;;;5047161;28;20120;-70
2023/06/16 08:28:11;;;;;;;8.85;2.70;;;;;;;;;;5045298;28;20605;-69
2023/06/16 08:30:56;;;;;;;7.28;3.58;;;;;;;;;;5049259;28;20029;-68
2023/06/16 08:33:41;;;;;;;6.07;2.88;;;;;;;;;;5047199;28;20424;-68
2023/06/16 08:36:26;;;;;;;4.07;2.90;;;;;;;;;;5047566;28;20108;-70
2023/06/16 08:39:12;;;;;;;7.00;3.17;;;;;;;;;;5049522;28;20487;-68
2023/06/16 08:41:58;;;;;;;4.65;3.35;;;;;;;;;;5049241;28;20549;-69
2023/06/16 08:44:43;;;;;;;9.18;3.50;;;;;;;;;;5049167;28;20025;-70
2023/06/16 08:47:28;;;;;;;3.30;2.42;;;;;;;;;;5048218;28;20032;-71
2023/06/16 08:50:19;;;;;;;5.00;2.45;;;;;;;;;;5049042;28;20032;-72
2023/06/16 08:53:08;;;;;;;5.45;3.20;;;;;;;;;;5045347;28;20043;-72
2023/06/16 08:55:54;;;;;;;6.03;2.90;;;;;;;;;;5048174;28;20039;-70
2023/06/16 08:58:40;;;;;;;7.10;3.55;;;;;;;;;;5052565;28;20437;-72
2023/06/16 09:01:27;;;;;;;6.25;3.40;;;;;;;;;;5047831;28;20040;-70
2023/06/16 09:04:16;;;;;;;4.90;3.17;;;;;;;;;;5049753;28;20487;-72
2023/06/16 09:07:01;;;;;;;4.13;2.70;;;;;;;;;;5046517;28;20048;-67
2023/06/16 09:09:46;;;;;;;5.30;3.08;;;;;;;;;;5047340;28;20078;-68
2023/06/16 09:12:31;;;;;;;8.60;3.20;;;;;;;;;;5046904;28;20036;-67
2023/06/16 09:15:17;;;;;;;7.10;3.13;;;;;;;;;;5044397;28;20051;-70
2023/06/16 09:18:08;;;;;;;4.05;2.55;;;;;;;;;;5048732;28;20033;-73
2023/06/16 09:21:00;;;;;;;6.43;2.88;;;;;;;;;;5048981;28;20098;-70
2023/06/16 09:23:47;;;;;;;4.63;2.75;;;;;;;;;;5054233;28;20028;-66
2023/06/16 09:26:35;;;;;;;6.15;2.90;;;;;;;;;;5053135;28;20025;-65
2023/06/16 09:29:22;;;;;;;4.85;3.00;;;;;;;;;;5054757;28;20079;-67
2023/06/16 09:32:08;;;;;;;7.43;3.28;;;;;;;;;;5048481;28;20044;-64
2023/06/16 09:34:53;;;;;;;6.38;2.80;;;;;;;;;;5047332;28;20044;-63
2023/06/16 09:37:39;;;;;;;6.13;2.78;;;;;;;;;;5050180;28;20531;-62
2023/06/16 09:40:26;;;;;;;4.60;2.67;;;;;;;;;;5054169;28;20020;-65
2023/06/16 09:43:11;;;;;;;6.70;3.35;;;;;;;;;;5054942;28;20259;-67
2023/06/16 09:45:57;;;;;;;5.13;2.63;;;;;;;;;;5050182;28;20563;-66
2023/06/16 09:48:46;;;;;;;5.70;2.95;;;;;;;;;;5035471;28;20044;-69
2023/06/16 09:51:31;;;;;;;7.93;3.03;;;;;;;;;;5047306;28;20537;-68
2023/06/16 09:54:18;;;;;;;7.40;3.00;;;;;;;;;;5050721;28;20040;-70
2023/06/16 09:57:03;;;;;;;4.85;2.75;;;;;;;;;;5046730;28;20113;-65
2023/06/16 09:59:49;;;;;;;5.32;2.95;;;;;;;;;;5049000;28;20047;-73
2023/06/16 10:02:34;;;;;;;6.00;3.15;;;;;;;;;;5051943;28;20090;-76
2023/06/16 10:05:21;;;;;;;4.57;2.80;;;;;;;;;;5047022;28;20036;-74
2023/06/16 10:08:06;;;;;;;5.70;3.28;;;;;;;;;;5050016;28;20062;-75
2023/06/16 10:10:51;;;;;;;8.23;3.85;;;;;;;;;;5046101;28;20095;-76
2023/06/16 10:13:38;;;;;;;5.68;3.42;;;;;;;;;;5053858;28;20043;-77
2023/06/16 10:16:28;;;;;;;6.78;3.95;;;;;;;;;;5050998;28;20031;-75
2023/06/16 10:19:13;;;;;;;5.53;3.58;;;;;;;;;;5054269;28;20035;-67
2023/06/16 10:21:59;;;;;;;5.25;3.13;;;;;;;;;;5050605;28;20056;-66
2023/06/16 10:24:44;;;;;;;6.60;3.13;;;;;;;;;;5048506;28;20033;-63
2023/06/16 10:27:30;;;;;;;8.15;3.30;;;;;;;;;;5050797;28;20021;-68
2023/06/16 10:30:19;;;;;;;4.97;2.90;;;;;;;;;;5052442;28;20028;-70
2023/06/16 10:33:21;;;;;;;4.38;2.70;;;;;;;;;;5059191;28;20056;-74
2023/06/16 10:36:09;;;;;;;4.47;2.88;;;;;;;;;;5051753;28;20051;-63
2023/06/16 10:38:56;;;;;;;6.25;3.15;;;;;;;;;;5051188;28;20043;-63
2023/06/16 10:41:52;;;;;;;4.28;3.00;;;;;;;;;;5047152;28;20039;-62
2023/06/16 10:44:38;;;;;;;6.45;3.15;;;;;;;;;;5048868;28;20086;-65
2023/06/16 10:47:27;;;;;;;6.03;3.75;;;;;;;;;;5043261;28;20021;-62
2023/06/16 10:50:12;;;;;;;7.90;3.47;;;;;;;;;;5052409;28;20039;-64
2023/06/16 10:53:07;;;;;;;8.35;2.90;;;;;;;;;;5047221;28;20114;-66
2023/06/16 10:56:04;;;;;;;6.38;3.58;;;;;;;;;;5048666;28;20051;-62
2023/06/16 10:58:57;;;;;;;5.75;3.22;;;;;;;;;;5050291;28;20074;-62
2023/06/16 11:01:46;;;;;;;5.03;2.85;;;;;;;;;;5061752;28;20055;-64
2023/06/16 11:04:33;;;;;;;7.53;3.28;;;;;;;;;;5068324;28;20475;-60
2023/06/16 11:07:18;;;;;;;4.40;2.80;;;;;;;;;;5050055;28;20615;-61
2023/06/16 11:10:03;;;;;;;8.25;3.38;;;;;;;;;;5053214;28;20035;-63
2023/06/16 11:12:49;;;;;;;6.07;3.20;;;;;;;;;;5052093;28;20040;-63
2023/06/16 11:15:34;;;;;;;7.68;3.22;;;;;;;;;;5050373;28;20040;-63
2023/06/16 11:18:22;;;;;;;8.48;3.50;;;;;;;;;;5047807;28;20060;-63
2023/06/16 11:21:08;;;;;;;9.88;4.03;;;;;;;;;;5053680;28;20040;-63
2023/06/16 11:23:53;;;;;;;5.68;3.50;;;;;;;;;;5048586;28;20077;-64
2023/06/16 11:26:39;;;;;;;5.22;3.80;;;;;;;;;;5045920;28;20059;-66
2023/06/16 11:29:25;;;;;;;9.18;3.85;;;;;;;;;;5051154;28;20443;-63
2023/06/16 11:32:10;;;;;;;5.38;3.28;;;;;;;;;;5051056;28;20478;-73
2023/06/16 11:34:55;;;;;;;6.32;3.03;;;;;;;;;;5046544;28;21346;-72
2023/06/16 11:37:45;;;;;;;5.07;3.30;;;;;;;;;;5049288;28;20020;-71
2023/06/16 11:40:31;;;;;;;6.43;3.38;;;;;;;;;;5046195;28;20060;-71
2023/06/16 11:43:18;;;;;;;4.97;3.33;;;;;;;;;;5050951;28;20032;-71
2023/06/16 11:46:03;;;;;;;7.53;3.70;;;;;;;;;;5050904;28;20499;-73
2023/06/16 11:48:49;;;;;;;7.07;3.58;;;;;;;;;;5051778;28;20040;-72
2023/06/16 11:51:35;;;;;;;5.47;3.60;;;;;;;;;;5046503;28;20098;-64
2023/06/16 11:54:20;;;;;;;5.60;3.53;;;;;;;;;;5052043;28;20119;-67
2023/06/16 11:57:05;;;;;;;7.15;4.43;;;;;;;;;;5051154;28;20055;-64
2023/06/16 11:59:51;;;;;;;6.38;3.05;;;;;;;;;;5049456;28;20032;-69
2023/06/16 12:02:37;;;;;;;7.38;3.55;;;;;;;;;;5044279;28;20031;-65
2023/06/16 12:05:22;;;;;;;5.50;3.47;;;;;;;;;;5049416;28;20777;-65
2023/06/16 12:08:07;;;;;;;5.70;3.80;;;;;;;;;;5044321;28;20505;-66
2023/06/16 12:10:54;;;;;;;7.63;3.35;;;;;;;;;;5047299;28;20053;-65
2023/06/16 12:13:39;;;;;;;7.72;3.20;;;;;;;;;;5058008;28;20037;-65
2023/06/16 12:16:28;;;;;;;7.57;4.13;;;;;;;;;;5049295;28;20604;-65
2023/06/16 12:19:16;;;;;;;6.95;3.67;;;;;;;;;;5045300;28;20303;-67
2023/06/16 12:22:02;;;;;;;5.95;3.30;;;;;;;;;;5046529;28;20033;-66
2023/06/16 12:24:48;;;;;;;8.18;3.22;;;;;;;;;;5041902;28;20036;-73
2023/06/16 12:27:35;;;;;;;10.57;3.78;;;;;;;;;;5047961;28;20025;-72
2023/06/16 12:30:31;;;;;;;5.97;3.33;;;;;;;;;;5049201;28;20044;-72
2023/06/16 12:33:16;;;;;;;6.00;4.00;;;;;;;;;;5052378;28;20032;-70
2023/06/16 12:36:08;;;;;;;5.78;3.33;;;;;;;;;;5045731;28;20510;-69
2023/06/16 12:38:58;;;;;;;4.82;3.15;;;;;;;;;;5048792;28;20515;-72
2023/06/16 12:42:02;;;;;;;7.57;3.60;;;;;;;;;;5047941;28;20067;-71
2023/06/16 12:44:48;;;;;;;6.50;3.55;;;;;;;;;;5050363;28;20448;-78
2023/06/16 12:47:34;;;;;;;5.25;3.28;;;;;;;;;;5046139;28;20130;-72
2023/06/16 12:50:19;;;;;;;8.00;3.67;;;;;;;;;;5053746;28;20559;-72
2023/06/16 12:53:04;;;;;;;14.68;3.65;;;;;;;;;;5059952;28;20126;-72
2023/06/16 12:55:50;;;;;;;5.55;3.90;;;;;;;;;;5045324;28;20493;-71
2023/06/16 12:58:36;;;;;;;7.47;3.42;;;;;;;;;;5049490;28;20037;-74
2023/06/16 13:01:21;;;;;;;6.57;3.97;;;;;;;;;;5048819;28;20029;-74
2023/06/16 13:04:07;;;;;;;6.28;3.95;;;;;;;;;;5054349;28;20048;-66
2023/06/16 13:06:52;;;;;;;6.68;4.10;;;;;;;;;;5054671;28;20028;-67
2023/06/16 13:09:37;;;;;;;7.35;3.92;;;;;;;;;;5052304;28;20483;-65
2023/06/16 13:12:22;;;;;;;5.93;3.70;;;;;;;;;;5046955;28;20036;-64
2023/06/16 13:15:08;;;;;;;5.75;3.95;;;;;;;;;;5050805;28;20040;-66
2023/06/16 13:17:53;;;;;;;7.18;4.05;;;;;;;;;;5052290;28;20040;-66
2023/06/16 13:20:39;;;;;;;4.93;3.25;;;;;;;;;;5050888;28;20033;-61
2023/06/16 13:23:24;;;;;;;5.90;3.78;;;;;;;;;;5051574;28;20031;-64
2023/06/16 13:26:11;;;;;;;6.78;3.90;;;;;;;;;;5051762;28;20040;-65
2023/06/16 13:28:56;;;;;;;5.25;3.45;;;;;;;;;;5049141;28;20033;-65
2023/06/16 13:31:41;;;;;;;8.18;4.07;;;;;;;;;;5049429;28;20032;-66
2023/06/16 13:34:26;;;;;;;6.65;3.67;;;;;;;;;;5051786;28;20077;-65
2023/06/16 13:37:11;;;;;;;7.97;3.50;;;;;;;;;;5052830;28;20068;-74
2023/06/16 13:39:57;;;;;;;6.22;3.50;;;;;;;;;;5038919;28;20119;-75
2023/06/16 13:42:42;;;;;;;5.32;3.63;;;;;;;;;;5050180;28;20111;-74
2023/06/16 13:45:28;;;;;;;8.60;4.75;;;;;;;;;;5051484;28;20716;-74
2023/06/16 13:48:15;;;;;;;9.02;4.60;;;;;;;;;;5046959;28;20068;-73
2023/06/16 13:51:00;;;;;;;5.50;3.40;;;;;;;;;;5053831;28;20036;-73
2023/06/16 13:53:45;;;;;;;5.80;3.67;;;;;;;;;;5053434;28;20205;-71
2023/06/16 13:56:31;;;;;;;5.18;3.30;;;;;;;;;;5048379;28;20039;-62
2023/06/16 13:59:16;;;;;;;6.60;3.13;;;;;;;;;;5053249;28;20445;-64
2023/06/16 14:02:01;;;;;;;7.13;3.88;;;;;;;;;;5052777;28;20059;-66
2023/06/16 14:04:46;;;;;;;8.30;3.70;;;;;;;;;;5047172;28;20119;-66
2023/06/16 14:07:32;;;;;;;6.43;3.78;;;;;;;;;;5050551;28;20431;-65
2023/06/16 14:10:17;;;;;;;6.25;3.80;;;;;;;;;;5049033;28;20525;-64
2023/06/16 14:13:03;;;;;;;8.10;4.35;;;;;;;;;;5049592;28;20071;-67
2023/06/16 14:15:48;;;;;;;8.30;4.13;;;;;;;;;;5050545;28;20134;-64
2023/06/16 14:18:34;;;;;;;8.30;3.88;;;;;;;;;;5052520;28;20081;-63
2023/06/16 14:21:19;;;;;;;10.88;4.20;;;;;;;;;;5045175;28;20029;-63
2023/06/16 14:24:04;;;;;;;5.45;4.03;;;;;;;;;;5042383;28;20093;-62
2023/06/16 14:26:50;;;;;;;7.07;3.50;;;;;;;;;;5048007;28;20494;-63
2023/06/16 14:29:35;;;;;;;5.35;3.45;;;;;;;;;;5050556;28;20049;-62
2023/06/16 14:32:20;;;;;;;7.47;4.35;;;;;;;;;;5050279;28;20032;-68
2023/06/16 14:35:05;;;;;;;6.35;3.70;;;;;;;;;;5049970;28;20031;-74
2023/06/16 14:37:51;;;;;;;8.25;4.28;;;;;;;;;;5048945;28;20132;-73
2023/06/16 14:40:36;;;;;;;8.68;3.97;;;;;;;;;;5047629;28;20067;-73
2023/06/16 14:43:21;;;;;;;6.03;3.72;;;;;;;;;;5050681;28;20036;-73
2023/06/16 14:46:06;;;;;;;7.30;4.03;;;;;;;;;;5046142;28;20048;-74
2023/06/16 14:48:52;;;;;;;6.78;4.00;;;;;;;;;;5047945;28;20024;-70
2023/06/16 14:51:37;;;;;;;6.28;4.20;;;;;;;;;;5051336;28;20097;-71
2023/06/16 14:54:22;;;;;;;7.90;3.97;;;;;;;;;;5046940;28;20037;-71
2023/06/16 14:57:09;;;;;;;6.68;4.15;;;;;;;;;;5047432;28;20037;-70
2023/06/16 14:59:54;;;;;;;7.93;3.38;;;;;;;;;;5051889;28;20430;-69
2023/06/16 15:02:39;;;;;;;6.30;3.30;;;;;;;;;;5051802;28;20043;-75
2023/06/16 15:05:25;;;;;;;8.45;4.30;;;;;;;;;;5045371;28;20032;-69
2023/06/16 15:08:10;;;;;;;5.75;3.33;;;;;;;;;;5048925;28;20067;-72
2023/06/16 15:10:55;;;;;;;7.00;3.55;;;;;;;;;;5064822;28;20063;-64
2023/06/16 15:13:41;;;;;;;6.55;3.72;;;;;;;;;;5049830;28;20283;-70
2023/06/16 15:16:26;;;;;;;5.22;3.58;;;;;;;;;;5052289;28;20027;-72
2023/06/16 15:19:12;;;;;;;6.18;3.30;;;;;;;;;;5061160;28;20028;-72
2023/06/16 15:21:57;;;;;;;5.93;3.35;;;;;;;;;;5045449;28;20043;-70
2023/06/16 15:24:42;;;;;;;6.15;3.70;;;;;;;;;;5056884;28;20047;-70
2023/06/16 15:27:30;;;;;;;6.20;3.78;;;;;;;;;;5055656;28;20059;-61
2023/06/16 15:30:15;;;;;;;4.60;3.30;;;;;;;;;;5042732;28;20032;-72
2023/06/16 15:33:00;;;;;;;9.18;3.67;;;;;;;;;;5064024;28;20456;-73
2023/06/16 15:35:45;;;;;;;6.35;3.90;;;;;;;;;;5057048;28;20037;-72
2023/06/16 15:38:31;;;;;;;5.18;3.33;;;;;;;;;;5057177;28;20549;-73
2023/06/16 15:41:17;;;;;;;8.07;3.67;;;;;;;;;;5061638;28;20049;-72
2023/06/16 15:44:02;;;;;;;6.25;3.17;;;;;;;;;;5044586;28;20526;-72
2023/06/16 15:46:47;;;;;;;8.82;3.88;;;;;;;;;;5063057;28;20035;-62
2023/06/16 15:49:32;;;;;;;6.15;3.80;;;;;;;;;;5056495;28;20055;-64
2023/06/16 15:52:18;;;;;;;5.80;3.72;;;;;;;;;;5052181;28;20025;-64
2023/06/16 15:55:03;;;;;;;6.10;3.60;;;;;;;;;;5068876;28;20028;-64
2023/06/16 15:57:49;;;;;;;6.80;3.38;;;;;;;;;;5046713;28;20165;-63
2023/06/16 16:00:34;;;;;;;5.97;3.35;;;;;;;;;;5061059;28;20033;-64
2023/06/16 16:03:19;;;;;;;5.38;3.40;;;;;;;;;;5058218;28;20028;-63
2023/06/16 16:06:04;;;;;;;9.82;4.13;;;;;;;;;;5048555;28;20110;-63
2023/06/16 16:08:50;;;;;;;7.97;4.10;;;;;;;;;;5054229;28;20093;-72
2023/06/16 16:11:36;;;;;;;9.93;4.32;;;;;;;;;;5056010;28;20376;-72
2023/06/16 16:14:22;;;;;;;10.55;3.80;;;;;;;;;;5052791;28;20051;-74
2023/06/16 16:17:07;;;;;;;8.40;3.75;;;;;;;;;;5049618;28;20033;-74
2023/06/16 16:19:53;;;;;;;6.30;3.85;;;;;;;;;;5050581;28;20510;-74
2023/06/16 16:22:38;;;;;;;7.07;4.18;;;;;;;;;;5049855;28;20074;-68
2023/06/16 16:25:23;;;;;;;8.98;3.88;;;;;;;;;;5046223;28;20043;-74
2023/06/16 16:28:08;;;;;;;9.73;3.78;;;;;;;;;;5057511;28;20032;-73
2023/06/16 16:30:53;;;;;;;6.78;4.50;;;;;;;;;;5049305;28;20081;-73
2023/06/16 16:33:39;;;;;;;10.90;3.63;;;;;;;;;;5049891;28;20028;-71
2023/06/16 16:36:24;;;;;;;9.23;3.80;;;;;;;;;;5050105;28;20040;-76